• Join FlightAware (Why Join?)
  • Login
  • US Flag 
 
01:17AM EST


 

Airport Tracker/Info


-or-


 

Live Flight TrackerFlight Track Log ✈ SWA1713 ✈ 22-Jun-2013 ✈ KBUF - KLAS

Flight Track Log - Related Links

Times and Time Zones

All times are in EDT time to prevent confusion due to time zone crossing. See the SWA1713 flight status page for this flight to view local times or setup timezone preferences in your user account.

Time Position Orientation Groundspeed Altitude Reporting Facility
EDT Latitude Longitude Course Direction KTS MPH feet Rate Location/Type
03:41PM 42.9333 -78.7500 206° Southwest 158 182 1,500  Level Buffalo TRACON
03:42PM 42.8833 -78.7833 206° Southwest 186 214 3,700 2,160 Climbing Buffalo TRACON
03:43PM 42.8178 -78.8283 207° Southwest 254 292 6,200 2,520 Climbing Cleveland Center
03:44PM 42.7433 -78.8644 200° South 280 322 9,200 2,400 Climbing Cleveland Center
03:45PM 42.6669 -78.9003 199° South 285 328 11,100 2,160 Climbing Cleveland Center
03:46PM 42.5717 -78.9422 198° South 329 379 13,600 2,700 Climbing Cleveland Center
03:47PM 42.4722 -78.9900 200° South 364 419 16,600 2,580 Climbing Cleveland Center
03:48PM 42.3900 -79.0764 218° Southwest 372 428 18,800 2,160 Climbing Cleveland Center
03:49PM 42.3856 -79.2197 268° West 340 391 21,000 1,980 Climbing Cleveland Center
03:50PM 42.3831 -79.3717 269° West 367 422 22,800 1,740 Climbing Cleveland Center
03:51PM 42.3803 -79.5292 269° West 401 461 24,500 1,680 Climbing Cleveland Center
03:52PM 42.3797 -79.6922 270° West 426 490 26,200 1,620 Climbing Cleveland Center
03:53PM 42.3725 -79.8581 267° West 437 503 27,800 1,440 Climbing Cleveland Center
03:54PM 42.3692 -80.0072 268° West 448 516 29,100 1,500 Climbing Cleveland Center
03:55PM 42.3658 -80.1758 269° West 454 522 30,800 1,620 Climbing Cleveland Center
03:56PM 42.3642 -80.3444 269° West 454 522 32,400 1,440 Climbing Cleveland Center
03:57PM 42.3561 -80.5269 267° West 454 522 33,700 780 Climbing Cleveland Center
03:58PM 42.3517 -80.6956 268° West 454 522 34,000 120 Climbing Cleveland Center
03:59PM 42.3472 -80.8614 268° West 454 522 34,000  Level Cleveland Center
04:00PM 42.3425 -81.0356 268° West 454 522 34,000  Level Cleveland Center
04:01PM 42.3336 -81.1983 266° West 454 522 34,000  Level Cleveland Center
04:02PM 42.3264 -81.3611 267° West 449 517 34,100 780 Climbing Cleveland Center
04:03PM 42.3208 -81.5267 267° West 449 517 35,600 900 Climbing Cleveland Center
04:04PM 42.3236 -81.6869 271° West 437 503 36,000 180 Climbing Cleveland Center
04:05PM 42.3344 -81.8528 275° West 442 509 36,000  Level Cleveland Center
04:06PM 42.3469 -82.0131 276° West 435 501 36,000  Level Cleveland Center
04:07PM 42.3556 -82.1594 275° West 435 501 36,000  Level Cleveland Center
04:08PM 42.3719 -82.3228 278° West 435 501 36,000  Level Cleveland Center
04:09PM 42.3861 -82.4864 277° West 440 506 36,000  Level Cleveland Center
04:10PM 42.4103 -82.6472 282° West 445 512 36,000  Level Cleveland Center
04:11PM 42.4386 -82.8058 284° West 445 512 36,000  Level Cleveland Center
04:12PM 42.4731 -82.9675 286° West 445 512 36,000  Level Cleveland Center
04:13PM 42.5092 -83.1239 287° West 445 512 36,000  Level Cleveland Center
04:14PM 42.5472 -83.2831 288° West 440 506 36,000  Level Cleveland Center
04:15PM 42.5847 -83.4597 286° West 450 518 36,000  Level Cleveland Center
04:16PM 42.5889 -83.6264 272° West 438 504 36,000  Level Cleveland Center
04:17PM 42.5781 -83.7950 265° West 444 511 36,000  Level Cleveland Center
04:18PM 42.5647 -83.9664 264° West 444 511 36,000  Level Cleveland Center
04:19PM 42.5514 -84.1319 264° West 454 522 36,000  Level Cleveland Center
04:20PM 42.5375 -84.3031 264° West 454 522 36,000  Level Cleveland Center
04:21PM 42.5350 -84.3803 268° West 452 520 36,000  Level Chicago Center
04:22PM 42.5189 -84.5822 264° West 450 518 36,000  Level Chicago Center
04:23PM 42.5056 -84.7497 264° West 447 514 36,000  Level Chicago Center
04:24PM 42.4917 -84.9178 264° West 448 516 36,000  Level Chicago Center
04:25PM 42.4786 -85.0828 264° West 444 511 36,000  Level Chicago Center
04:26PM 42.4644 -85.2467 263° West 440 506 36,000  Level Chicago Center
04:27PM 42.4506 -85.4125 264° West 442 509 36,000  Level Chicago Center
04:28PM 42.4358 -85.5783 263° West 443 510 36,000  Level Chicago Center
04:29PM 42.4181 -85.7742 263° West 439 505 36,000  Level Chicago Center
04:30PM 42.4028 -85.9403 263° West 443 510 36,000  Level Chicago Center
04:31PM 42.3883 -86.1058 263° West 442 509 36,000  Level Chicago Center
04:33PM 42.3717 -86.2714 262° West 442 509 36,000  Level Chicago Center
04:34PM 42.3564 -86.4367 263° West 441 507 36,000  Level Chicago Center
04:35PM 42.3403 -86.6028 263° West 444 511 36,000  Level Chicago Center
04:36PM 42.3250 -86.7917 264° West 444 511 36,000 480 Level Chicago Center
04:37PM 42.3086 -86.9567 262° West 447 514 37,000 960 Climbing Chicago Center
04:38PM 42.2897 -87.1158 261° West 436 502 38,000 480 Climbing Chicago Center
04:39PM 42.2736 -87.2786 262° West 439 505 38,000  Level Chicago Center
04:40PM 42.2542 -87.4758 262° West 447 514 38,000  Level Chicago Center
04:41PM 42.2378 -87.6372 262° West 443 510 38,000  Level Chicago Center
04:42PM 42.2203 -87.7989 262° West 441 507 38,000  Level Chicago Center
04:43PM 42.2028 -87.9575 262° West 436 502 38,000  Level Chicago Center
04:44PM 42.1858 -88.1161 262° West 436 502 38,000  Level Chicago Center
04:45PM 42.1650 -88.3053 262° West 431 496 38,000  Level Chicago Center
04:46PM 42.1464 -88.4650 261° West 436 502 38,000  Level Chicago Center
04:47PM 42.1286 -88.6211 261° West 430 495 38,000  Level Chicago Center
04:48PM 42.1097 -88.7828 261° West 440 506 38,000  Level Chicago Center
04:49PM 42.0894 -88.9567 261° West 442 509 38,000  Level Chicago Center
04:50PM 42.0708 -89.1211 261° West 443 510 38,000  Level Chicago Center
04:51PM 42.0483 -89.3036 261° West 452 520 38,000  Level Chicago Center
04:52PM 42.0294 -89.4664 261° West 447 514 38,000  Level Chicago Center
04:53PM 42.0089 -89.6283 260° West 443 510 38,000  Level Chicago Center
04:54PM 41.9886 -89.7917 261° West 447 514 38,000  Level Chicago Center
04:55PM 41.9667 -89.9683 261° West 449 517 38,000  Level Chicago Center
04:56PM 41.9464 -90.1328 261° West 451 519 38,000  Level Chicago Center
04:57PM 41.9247 -90.2975 260° West 451 519 38,000  Level Chicago Center
04:58PM 41.8986 -90.4969 260° West 455 524 38,000  Level Chicago Center
04:59PM 41.8756 -90.6644 260° West 459 528 38,000  Level Chicago Center
05:00PM 41.8539 -90.8300 260° West 456 525 38,000  Level Chicago Center
05:01PM 41.8308 -90.9933 259° West 450 518 38,000  Level Chicago Center
05:02PM 41.8097 -91.1567 260° West 449 517 38,000  Level Chicago Center
05:03PM 41.7858 -91.3206 259° West 450 518 38,000  Level Chicago Center
05:04PM 41.7586 -91.5178 260° West 452 520 38,000  Level Chicago Center
05:05PM 41.7356 -91.6822 259° West 450 518 38,000  Level Chicago Center
05:06PM 41.7119 -91.8453 259° West 450 518 38,000  Level Chicago Center
05:08PM 41.6892 -92.0072 259° West 446 513 38,000  Level Chicago Center
05:09PM 41.6633 -92.1675 258° West 445 512 38,000  Level Chicago Center
05:10PM 41.6400 -92.3308 259° West 447 514 38,000  Level Chicago Center
05:11PM 41.6114 -92.5239 259° West 444 511 38,000  Level Chicago Center
05:12PM 41.5881 -92.6861 259° West 448 516 38,000  Level Chicago Center
05:12PM 41.5750 -92.7669 258° West 444 511 38,000  Level Minneapolis Center
05:13PM 41.5511 -92.9278 259° West 445 512 38,000  Level Minneapolis Center
05:14PM 41.5208 -93.1175 258° West 443 510 38,000  Level Minneapolis Center
05:15PM 41.4969 -93.2722 258° West 436 502 38,000  Level Minneapolis Center
05:16PM 41.4722 -93.4275 258° West 434 499 38,000  Level Minneapolis Center
05:17PM 41.4483 -93.5792 258° West 427 491 38,000  Level Minneapolis Center
05:18PM 41.4253 -93.7333 259° West 428 493 38,000  Level Minneapolis Center
05:19PM 41.3933 -93.9222 257° West 437 503 38,000  Level Minneapolis Center
05:20PM 41.3683 -94.0789 258° West 437 503 38,000  Level Minneapolis Center
05:21PM 41.3408 -94.2356 257° West 439 505 38,000  Level Minneapolis Center
05:23PM 41.3125 -94.3956 257° West 441 507 38,000  Level Minneapolis Center
05:24PM 41.2886 -94.5569 259° West 445 512 38,000  Level Minneapolis Center
05:25PM 41.2603 -94.7167 257° West 445 512 38,000  Level Minneapolis Center
05:26PM 41.2275 -94.9086 257° West 444 511 38,000  Level Minneapolis Center
05:27PM 41.1983 -95.0689 256° West 446 513 38,000  Level Minneapolis Center
05:28PM 41.1706 -95.2289 257° West 445 512 38,000  Level Minneapolis Center
05:29PM 41.1411 -95.3881 256° West 444 511 38,000  Level Minneapolis Center
05:30PM 41.1111 -95.5489 256° West 447 514 38,000  Level Minneapolis Center
05:31PM 41.0822 -95.7094 257° West 445 512 38,000  Level Minneapolis Center
05:32PM 41.0533 -95.8694 257° West 443 510 38,000  Level Minneapolis Center
05:33PM 41.0247 -96.0261 256° West 436 502 38,000  Level Minneapolis Center
05:34PM 40.9961 -96.1842 257° West 437 503 38,000  Level Minneapolis Center
05:35PM 40.9678 -96.3358 256° West 427 491 38,000  Level Minneapolis Center
05:36PM 40.9333 -96.5164 256° West 421 484 38,000  Level Minneapolis Center
05:37PM 40.9053 -96.6661 256° West 419 482 38,000  Level Minneapolis Center
05:38PM 40.8772 -96.8144 256° West 417 480 38,000  Level Minneapolis Center
05:39PM 40.8492 -96.9642 256° West 420 483 38,000  Level Minneapolis Center
05:40PM 40.8186 -97.1150 255° West 424 488 38,000  Level Minneapolis Center
05:41PM 40.7892 -97.2658 256° West 424 488 38,000  Level Minneapolis Center
05:42PM 40.7575 -97.4314 256° West 419 482 38,000  Level Minneapolis Center
05:43PM 40.7283 -97.5778 255° West 414 476 38,000  Level Minneapolis Center
05:44PM 40.6983 -97.7236 255° West 412 474 38,000  Level Minneapolis Center
05:45PM 40.6694 -97.8689 255° West 411 473 38,000  Level Minneapolis Center
05:46PM 40.6403 -98.0139 255° West 409 471 38,000  Level Minneapolis Center
05:47PM 40.6114 -98.1575 255° West 406 467 38,000  Level Minneapolis Center
05:48PM 40.5817 -98.2986 255° West 401 461 38,000  Level Minneapolis Center
05:49PM 40.5583 -98.4106 255° West 398 458 38,000  Level Minneapolis Center
05:50PM 40.5244 -98.5772 255° West 393 452 38,000  Level Minneapolis Center
05:52PM 40.4731 -98.8264 255° West 390 449 38,000  Level Denver Center
05:53PM 40.4381 -98.9883 254° West 385 443 38,000  Level Denver Center
05:54PM 40.4086 -99.1267 254° West 391 450 38,000  Level Denver Center
05:55PM 40.3781 -99.2656 254° West 396 456 38,000  Level Denver Center
05:56PM 40.3483 -99.4075 255° West 402 463 38,000  Level Denver Center
05:57PM 40.3233 -99.5206 254° West 403 464 38,000  Level Denver Center
05:58PM 40.2864 -99.6883 254° West 399 459 38,000  Level Denver Center
05:59PM 40.2564 -99.8294 254° West 401 461 38,000  Level Denver Center
06:00PM 40.2208 -99.9856 253° West 401 461 38,000  Level Denver Center
06:01PM 40.1908 -100.1172 253° West 396 456 38,000  Level Denver Center
06:02PM 40.1564 -100.2706 254° West 393 452 38,000  Level Denver Center
06:03PM 40.1264 -100.4031 254° West 396 456 38,000  Level Denver Center
06:04PM 40.0969 -100.5319 253° West 389 448 38,000  Level Denver Center
06:05PM 40.0628 -100.6831 254° West 386 444 38,000  Level Denver Center
06:06PM 40.0319 -100.8125 253° West 388 447 38,000  Level Denver Center
06:07PM 39.9972 -100.9644 253° West 392 451 38,000  Level Denver Center
06:09PM 39.9717 -101.0742 253° West 395 455 38,000  Level Denver Center
06:10PM 39.9317 -101.2481 253° West 393 452 38,000  Level Denver Center
06:11PM 39.9011 -101.3761 253° West 389 448 38,000  Level Denver Center
06:12PM 39.8711 -101.5064 253° West 390 449 38,000  Level Denver Center
06:13PM 39.8336 -101.6550 252° West 388 447 38,000  Level Denver Center
06:14PM 39.8042 -101.7850 254° West 389 448 38,000  Level Denver Center
06:15PM 39.7669 -101.9303 252° West 382 440 38,000  Level Denver Center
06:16PM 39.7433 -102.0361 254° West 382 440 38,000  Level Denver Center
06:17PM 39.7058 -102.1831 252° West 383 441 38,000  Level Denver Center
06:18PM 39.6697 -102.3306 252° West 384 442 38,000  Level Denver Center
06:19PM 39.6378 -102.4567 252° West 386 444 38,000  Level Denver Center
06:20PM 39.6089 -102.5747 252° West 387 445 38,000  Level Denver Center
06:21PM 39.5686 -102.7369 252° West 393 452 38,000  Level Denver Center
06:22PM 39.5344 -102.8706 252° West 390 449 38,000  Level Denver Center
06:23PM 39.5006 -103.0031 252° West 389 448 38,000  Level Denver Center
06:24PM 39.4683 -103.1353 253° West 387 445 38,000  Level Denver Center
06:25PM 39.4344 -103.2658 251° West 385 443 38,000  Level Denver Center
06:26PM 39.3936 -103.4228 251° West 384 442 38,000  Level Denver Center
06:27PM 39.3600 -103.5550 252° West 386 444 38,000  Level Denver Center
06:28PM 39.3258 -103.6867 251° West 386 444 38,000  Level Denver Center
06:29PM 39.2908 -103.8183 251° West 386 444 38,000  Level Denver Center
06:30PM 39.2564 -103.9511 252° West 389 448 38,000  Level Denver Center
06:31PM 39.2214 -104.0831 251° West 389 448 38,000  Level Denver Center
06:32PM 39.1844 -104.2192 251° West 400 460 38,000  Level Denver Center
06:33PM 39.1483 -104.3556 251° West 400 460 38,000  Level Denver Center
06:34PM 39.1117 -104.4919 251° West 401 461 38,000  Level Denver Center
06:35PM 39.0742 -104.6297 251° West 404 465 38,000  Level Denver Center
06:36PM 39.0289 -104.7947 251° West 406 467 38,000  Level Denver Center
06:37PM 38.9936 -104.9269 251° West 394 453 38,000  Level Denver Center
06:38PM 38.9494 -105.0533 246° West 388 447 38,000  Level Denver Center
06:39PM 38.9108 -105.1803 249° West 383 441 38,000  Level Denver Center
06:40PM 38.8769 -105.3092 251° West 381 438 38,000  Level Denver Center
06:41PM 38.8414 -105.4378 250° West 382 440 38,000  Level Denver Center
06:42PM 38.8044 -105.5667 250° West 385 443 38,000  Level Denver Center
06:43PM 38.7683 -105.6961 250° West 387 445 38,000  Level Denver Center
06:44PM 38.7247 -105.8531 250° West 389 448 38,000  Level Denver Center
06:45PM 38.6883 -105.9842 250° West 390 449 38,000  Level Denver Center
06:46PM 38.6511 -106.1133 250° West 388 447 38,000  Level Denver Center
06:48PM 38.6142 -106.2428 250° West 392 451 38,000  Level Denver Center
06:49PM 38.5769 -106.3717 250° West 395 455 38,000  Level Denver Center
06:50PM 38.5394 -106.5036 250° West 395 455 38,000  Level Denver Center
06:51PM 38.5017 -106.6361 250° West 396 456 38,000  Level Denver Center
06:52PM 38.4633 -106.7672 250° West 394 453 38,000  Level Denver Center
06:53PM 38.4181 -106.9242 250° West 392 451 38,000  Level Denver Center
06:54PM 38.3786 -107.0553 249° West 395 455 38,000  Level Denver Center
06:55PM 38.3411 -107.1864 250° West 400 460 38,000  Level Denver Center
06:56PM 38.3033 -107.3128 249° West 399 459 38,000  Level Denver Center
06:57PM 38.2592 -107.4611 249° West 399 459 38,000  Level Denver Center
06:58PM 38.2200 -107.5919 249° West 410 472 38,000  Level Denver Center
06:59PM 38.1753 -107.7411 249° West 406 467 38,000  Level Denver Center
07:00PM 38.1383 -107.8644 249° West 395 455 38,000  Level Denver Center
07:01PM 38.0922 -108.0114 248° West 400 460 38,000  Level Denver Center
07:02PM 38.0508 -108.1497 249° West 403 464 38,000  Level Denver Center
07:03PM 38.0128 -108.2753 249° West 400 460 38,000  Level Denver Center
07:04PM 37.9736 -108.4025 249° West 403 464 38,000  Level Denver Center
07:05PM 37.9286 -108.5486 249° West 401 461 38,000  Level Denver Center
07:06PM 37.8897 -108.6717 248° West 397 457 38,000  Level Denver Center
07:07PM 37.8567 -108.7789 249° West 404 465 38,000  Level Denver Center
07:08PM 37.8050 -108.9419 248° West 394 453 38,000  Level Denver Center
07:09PM 37.7633 -109.1133 253° West 399 459 38,000  Level Denver Center
07:10PM 37.7314 -109.2444 253° West 407 468 38,000  Level Denver Center
07:11PM 37.6933 -109.3956 252° West 407 468 38,000  Level Denver Center
07:12PM 37.6608 -109.5250 252° West 406 467 38,000  Level Denver Center
07:13PM 37.6342 -109.6350 253° West 410 472 38,000  Level Denver Center
07:14PM 37.5894 -109.8081 252° West 407 468 38,000  Level Denver Center
07:15PM 37.5569 -109.9372 252° West 406 467 38,000  Level Denver Center
07:16PM 37.5186 -110.0856 252° West 400 460 38,000  Level Denver Center
07:17PM 37.4844 -110.2153 252° West 405 466 38,000 -180 Level Denver Center
07:19PM 37.4433 -110.3728 252° West 399 459 37,700 -540 Descending Denver Center
07:20PM 37.4108 -110.5039 253° West 393 452 36,800 -1,020 Descending Denver Center
07:21PM 37.3692 -110.6606 252° West 394 453 35,600 -1,080 Descending Denver Center
07:22PM 37.3342 -110.7939 252° West 401 461 34,700 -960 Descending Denver Center
07:23PM 37.2969 -110.9283 251° West 406 467 33,700 -1,020 Descending Denver Center
07:24PM 37.2622 -111.0644 252° West 408 470 32,700 -840 Descending Denver Center
07:25PM 37.2250 -111.2022 251° West 415 478 32,000 -360 Descending Denver Center
07:26PM 37.1875 -111.3411 251° West 419 482 32,000  Level Denver Center
07:27PM 37.1494 -111.4789 251° West 418 481 32,000  Level Denver Center
07:28PM 37.1150 -111.6156 252° West 414 476 32,000  Level Denver Center
07:29PM 37.0706 -111.7844 252° West 417 480 32,000 -480 Level Los Angeles Center
07:30PM 37.0428 -111.9253 256° West 417 480 31,000 -960 Descending Los Angeles Center
07:31PM 37.0128 -112.0678 255° West 421 484 30,100 -1,020 Descending Los Angeles Center
07:32PM 36.9783 -112.2422 256° West 428 493 28,900 -1,020 Descending Los Angeles Center
07:33PM 36.9464 -112.3908 255° West 437 503 28,000 -480 Descending Los Angeles Center
07:34PM 36.9144 -112.5397 255° West 441 507 28,000  Level Los Angeles Center
07:35PM 36.8825 -112.6872 255° West 440 506 28,000  Level Los Angeles Center
07:36PM 36.8506 -112.8350 255° West 440 506 28,000  Level Los Angeles Center
07:37PM 36.8186 -112.9833 255° West 440 506 28,000  Level Los Angeles Center
07:38PM 36.7864 -113.1314 255° West 441 507 28,000  Level Los Angeles Center
07:39PM 36.7544 -113.2806 255° West 443 510 28,000  Level Los Angeles Center
07:40PM 36.7208 -113.4289 254° West 444 511 28,000 -60 Level Los Angeles Center
07:41PM 36.6817 -113.6083 255° West 447 514 27,900 -1,320 Descending Los Angeles Center
07:42PM 36.6494 -113.7544 255° West 439 505 25,400 -2,580 Descending Los Angeles Center
07:44PM 36.6186 -113.8906 254° West 415 478 22,700 -2,580 Descending Los Angeles Center
07:45PM 36.5889 -114.0253 255° West 405 466 20,100 -2,580 Descending Los Angeles Center
07:46PM 36.5481 -114.1456 247° West 382 440 17,400 -2,700 Descending Los Angeles Center
07:47PM 36.4892 -114.2742 240° Southwest 374 430 14,600 -2,400 Descending Los Angeles Center
07:48PM 36.4397 -114.3825 240° Southwest 362 417 12,600 -1,440 Descending Los Angeles Center
07:49PM 36.3908 -114.4803 238° Southwest 338 389 11,700 -1,080 Descending Los Angeles Center
07:50PM 36.3164 -114.5375 212° Southwest 315 362 10,400 -1,260 Descending Los Angeles Center
07:51PM 36.2478 -114.5922 213° Southwest 296 341 9,100 -1,200 Descending Los Angeles Center
07:52PM 36.1825 -114.6431 212° Southwest 283 326 8,000 -540 Descending Los Angeles Center
07:53PM 36.1228 -114.6886 212° Southwest 268 308 8,000 -180 Level Los Angeles Center
07:54PM 36.0736 -114.7617 230° Southwest 235 270 7,700 -540 Descending Los Angeles Center
07:55PM 36.0744 -114.8339 271° West 238 274 6,900 -960 Descending Los Angeles Center
07:56PM 36.0747 -114.9103 270° West 233 268 5,900 -1,260 Descending Los Angeles Center
07:57PM 36.0725 -114.9831 268° West 193 222 4,300 -1,200 Descending Los Angeles Center
07:58PM 36.0739 -115.0369 272° West 195 224 3,500 -900 Descending Los Angeles Center
07:59PM 36.0728 -115.1028 269° West 155 178 2,500 -780 Descending Los Angeles Center
08:00PM 36.0731 -115.1419 271° West 162 186 2,000 -540 Descending Los Angeles Center
08:02PM 36.0667 -115.1500 219° Southwest  Level FlightAware Approximate